Time;durP1;ratioP1;P1;durP2;ratioP2;P2;SDS_P1;SDS_P2;PMS_P1;PMS_P2;Temp;Humidity;BMP_temperature;BMP_pressure;BME280_temperature;BME280_humidity;BME280_pressure;Samples;Min_cycle;Max_cycle;Signal;HPM_P1;HPM_P2
2021/01/29 05:16:30;;;;;;;1.30;1.30;;;3.90;99.90;;;;;;6175164;22;20216;-77
2021/01/29 05:19:28;;;;;;;1.20;1.20;;;3.90;99.90;;;;;;6197243;23;20632;-77
2021/01/29 05:22:25;;;;;;;1.23;1.23;;;3.80;99.90;;;;;;6217059;23;20159;-77
2021/01/29 05:25:09;;;;;;;1.30;1.30;;;3.60;99.90;;;;;;6217317;23;20225;-77
2021/01/29 05:28:00;;;;;;;1.10;1.10;;;3.60;99.90;;;;;;6187171;23;20163;-75
2021/01/29 05:30:50;;;;;;;1.33;1.33;;;3.50;99.90;;;;;;6185249;23;20179;-75
2021/01/29 05:33:29;;;;;;;1.20;1.20;;;3.50;99.90;;;;;;6185777;23;20382;-75
2021/01/29 05:36:09;;;;;;;1.27;1.27;;;3.50;99.90;;;;;;6185528;23;20195;-76
2021/01/29 05:38:55;;;;;;;1.27;1.27;;;3.60;99.90;;;;;;6185855;23;20163;-77
2021/01/29 05:42:00;;;;;;;1.00;1.00;;;3.60;99.90;;;;;;6185563;23;20537;-78
2021/01/29 05:44:56;;;;;;;1.20;1.20;;;3.60;99.90;;;;;;6185408;23;20159;-77
2021/01/29 05:48:11;;;;;;;1.23;1.23;;;3.60;99.90;;;;;;6160154;23;20203;-74
2021/01/29 05:51:15;;;;;;;1.40;1.40;;;3.70;99.90;;;;;;6185123;23;20214;-73
2021/01/29 05:54:11;;;;;;;1.10;1.10;;;3.70;99.90;;;;;;6185441;23;20221;-75
2021/01/29 05:56:54;;;;;;;1.07;1.07;;;3.60;99.90;;;;;;6184900;23;20198;-78
2021/01/29 05:59:38;;;;;;;1.20;1.20;;;3.60;99.90;;;;;;6184995;23;20159;-76
2021/01/29 06:02:39;;;;;;;1.00;1.00;;;3.60;99.90;;;;;;6184709;23;20499;-78
2021/01/29 06:05:19;;;;;;;1.33;1.33;;;3.60;99.90;;;;;;6183652;23;20234;-78
2021/01/29 06:08:34;;;;;;;1.20;1.20;;;3.60;99.90;;;;;;6184475;23;20186;-76
2021/01/29 06:11:19;;;;;;;1.23;1.23;;;3.60;99.90;;;;;;6175341;23;20245;-77
2021/01/29 06:14:43;;;;;;;1.50;1.50;;;3.60;99.90;;;;;;6185197;23;20167;-77
2021/01/29 06:17:37;;;;;;;0.90;0.90;;;3.70;99.90;;;;;;6184489;23;20237;-79
2021/01/29 06:20:47;;;;;;;1.30;1.30;;;3.80;99.90;;;;;;6185092;23;20194;-75
2021/01/29 06:23:34;;;;;;;1.23;1.23;;;3.70;99.90;;;;;;6144463;23;20174;-75
2021/01/29 06:26:16;;;;;;;1.30;1.30;;;3.60;99.90;;;;;;6185263;23;20574;-80
2021/01/29 06:29:13;;;;;;;1.40;1.40;;;3.60;99.90;;;;;;6184617;23;20213;-78
2021/01/29 06:32:26;;;;;;;1.17;1.17;;;3.70;99.90;;;;;;6185073;23;20182;-74
2021/01/29 06:35:13;;;;;;;1.30;1.30;;;3.70;99.90;;;;;;6184889;23;20253;-76
2021/01/29 06:37:49;;;;;;;1.30;1.30;;;3.60;99.90;;;;;;6159900;23;20246;-77
2021/01/29 06:40:25;;;;;;;1.20;1.20;;;3.60;99.90;;;;;;6185083;23;20209;-76
2021/01/29 06:43:19;;;;;;;1.17;1.17;;;3.70;99.90;;;;;;6183286;23;20218;-76
2021/01/29 06:46:13;;;;;;;1.20;1.20;;;3.60;99.90;;;;;;6161815;23;20264;-76
2021/01/29 06:48:57;;;;;;;1.20;1.20;;;3.60;99.90;;;;;;6181990;23;20189;-76
2021/01/29 06:52:02;;;;;;;1.10;1.10;;;3.60;99.90;;;;;;6182439;23;20187;-76
2021/01/29 06:54:51;;;;;;;1.20;1.20;;;3.60;99.90;;;;;;6182994;23;20532;-75
2021/01/29 06:57:32;;;;;;;1.30;1.30;;;3.70;99.90;;;;;;6182999;23;20199;-77
2021/01/29 13:01:56;;;;;;;1.10;1.10;;;3.00;99.90;;;;;;6209424;22;20230;-74
2021/01/29 13:04:36;;;;;;;1.20;1.20;;;3.00;99.90;;;;;;6215610;23;20158;-74
2021/01/29 13:07:09;;;;;;;1.20;1.20;;;3.00;99.90;;;;;;6215714;23;20162;-74
2021/01/29 13:10:07;;;;;;;1.10;1.10;;;3.00;99.90;;;;;;6215398;23;20216;-74
2021/01/29 13:12:47;;;;;;;1.17;1.17;;;3.00;99.90;;;;;;6215453;23;20208;-74
2021/01/29 13:15:23;;;;;;;1.30;1.30;;;3.00;99.90;;;;;;6216242;23;20217;-74
2021/01/29 13:18:01;;;;;;;1.23;1.23;;;3.00;99.90;;;;;;6215280;23;20184;-74
2021/01/29 13:20:32;;;;;;;1.00;1.00;;;3.00;99.90;;;;;;6215624;23;20212;-74
2021/01/29 13:23:35;;;;;;;1.10;1.10;;;3.10;99.90;;;;;;6215301;23;20155;-74
2021/01/29 13:26:04;;;;;;;1.10;1.10;;;3.10;99.90;;;;;;6215186;23;20537;-74
2021/01/29 13:28:32;;;;;;;1.10;1.10;;;3.10;99.90;;;;;;6215022;23;20232;-74
2021/01/29 13:31:17;;;;;;;1.10;1.10;;;3.30;99.90;;;;;;6215245;23;20198;-74
2021/01/29 13:33:49;;;;;;;1.20;1.20;;;3.10;99.90;;;;;;6215402;23;20166;-74
2021/01/29 13:36:24;;;;;;;1.10;1.10;;;3.30;99.90;;;;;;6215316;23;20217;-74
2021/01/29 13:38:52;;;;;;;1.10;1.10;;;3.40;99.90;;;;;;6214796;23;20667;-74
2021/01/29 13:41:22;;;;;;;1.20;1.20;;;3.60;99.90;;;;;;6215061;23;20194;-74
2021/01/29 13:43:51;;;;;;;1.20;1.20;;;3.60;99.90;;;;;;6214771;23;20162;-75
2021/01/29 13:46:30;;;;;;;1.33;1.33;;;3.60;99.90;;;;;;6215071;23;20699;-75
2021/01/29 13:49:22;;;;;;;1.40;1.40;;;3.80;99.90;;;;;;6214927;23;20158;-75
2021/01/29 13:51:52;;;;;;;1.10;1.10;;;3.60;99.90;;;;;;6214766;23;20561;-75
2021/01/29 13:54:33;;;;;;;1.10;1.10;;;3.60;99.90;;;;;;6215512;23;20178;-75
2021/01/29 13:57:07;;;;;;;1.20;1.20;;;3.70;99.90;;;;;;6215028;23;20180;-75
2021/01/29 13:59:40;;;;;;;1.00;1.00;;;3.70;99.90;;;;;;6214545;23;20536;-75
2021/01/29 14:02:25;;;;;;;1.00;1.00;;;3.70;99.90;;;;;;6212082;23;20201;-75
2021/01/29 14:04:58;;;;;;;1.10;1.10;;;3.70;99.90;;;;;;6214116;23;20228;-75
2021/01/29 14:07:25;;;;;;;1.00;1.00;;;3.80;99.90;;;;;;6214443;23;20595;-75
2021/01/29 14:09:52;;;;;;;1.23;1.23;;;3.70;99.90;;;;;;6214165;23;20213;-75
2021/01/29 14:12:28;;;;;;;1.30;1.30;;;3.70;99.90;;;;;;6214406;23;20714;-75
2021/01/29 14:15:08;;;;;;;1.17;1.17;;;3.70;99.90;;;;;;6214851;23;20485;-76
2021/01/29 14:17:44;;;;;;;1.20;1.20;;;3.50;99.90;;;;;;6214424;23;20500;-76
2021/01/29 14:20:19;;;;;;;1.40;1.40;;;3.00;99.90;;;;;;6215290;23;20181;-75
2021/01/29 14:22:59;;;;;;;1.07;1.07;;;3.20;99.90;;;;;;6216269;23;20361;-76
2021/01/29 14:25:39;;;;;;;1.03;1.03;;;3.30;99.90;;;;;;6216902;23;20169;-76
2021/01/29 14:28:13;;;;;;;1.30;1.30;;;3.20;99.90;;;;;;6214370;23;20535;-76
2021/01/29 14:30:54;;;;;;;1.30;1.30;;;3.20;99.90;;;;;;6212876;23;20248;-76
2021/01/29 14:33:32;;;;;;;1.30;1.30;;;3.10;99.90;;;;;;6214609;23;20185;-76
2021/01/29 14:36:14;;;;;;;1.20;1.20;;;3.00;99.90;;;;;;6214320;23;20605;-75
2021/01/29 14:39:11;;;;;;;1.20;1.20;;;3.00;99.90;;;;;;6214324;23;20624;-76
2021/01/29 14:41:52;;;;;;;1.10;1.10;;;3.00;99.90;;;;;;6189767;23;20194;-75
2021/01/29 14:44:41;;;;;;;1.00;1.00;;;3.10;99.90;;;;;;6214697;23;20158;-75
2021/01/29 14:47:23;;;;;;;1.10;1.10;;;3.10;99.90;;;;;;6214496;23;20162;-75
2021/01/29 14:50:10;;;;;;;1.40;1.40;;;3.10;99.90;;;;;;6214508;23;20199;-75
2021/01/29 14:52:49;;;;;;;1.30;1.30;;;3.10;99.90;;;;;;6214285;23;20240;-75
2021/01/29 14:55:22;;;;;;;1.20;1.20;;;3.10;99.90;;;;;;6214276;23;20162;-75
2021/01/29 14:57:54;;;;;;;1.27;1.27;;;3.20;99.90;;;;;;6214546;23;20166;-75
2021/01/29 15:00:34;;;;;;;1.20;1.20;;;3.10;99.90;;;;;;6213719;23;20670;-75
2021/01/29 15:03:08;;;;;;;1.20;1.20;;;3.00;99.90;;;;;;6214330;23;20542;-75
2021/01/29 15:05:41;;;;;;;1.13;1.13;;;3.20;99.90;;;;;;6214472;23;20163;-75
2021/01/29 15:08:15;;;;;;;1.20;1.20;;;3.30;99.90;;;;;;6214353;23;20163;-75
2021/01/29 15:10:42;;;;;;;1.10;1.10;;;3.30;99.90;;;;;;6214477;23;20275;-76
2021/01/29 15:13:12;;;;;;;1.13;1.13;;;3.40;99.90;;;;;;6211840;23;20198;-76
2021/01/29 15:15:43;;;;;;;1.17;1.17;;;3.30;99.90;;;;;;6213759;23;20174;-75
2021/01/29 15:18:13;;;;;;;1.20;1.20;;;3.30;99.90;;;;;;6214061;23;20513;-75
2021/01/29 15:20:46;;;;;;;1.27;1.27;;;3.30;99.90;;;;;;6214132;23;20201;-75
2021/01/29 15:23:27;;;;;;;1.20;1.20;;;3.30;99.90;;;;;;6214097;23;20543;-76
2021/01/29 15:26:15;;;;;;;1.20;1.20;;;3.30;99.90;;;;;;6213995;23;20533;-76
2021/01/29 15:28:45;;;;;;;1.20;1.20;;;3.40;99.90;;;;;;6213615;23;20197;-74
2021/01/29 15:31:44;;;;;;;1.20;1.20;;;3.30;99.90;;;;;;6213773;23;20225;-75
2021/01/29 15:34:50;;;;;;;1.40;1.40;;;3.30;99.90;;;;;;6213868;23;20168;-75
2021/01/29 15:37:50;;;;;;;1.27;1.27;;;3.30;99.90;;;;;;6213605;23;20228;-74
2021/01/29 15:40:21;;;;;;;1.30;1.30;;;3.40;99.90;;;;;;6213816;23;20232;-74
2021/01/29 15:42:48;;;;;;;1.10;1.10;;;3.20;99.90;;;;;;6213671;23;20154;-75
2021/01/29 15:45:23;;;;;;;1.20;1.20;;;3.40;99.90;;;;;;6213624;23;20505;-75
2021/01/29 15:47:59;;;;;;;1.20;1.20;;;3.40;99.90;;;;;;6213758;23;20182;-73
2021/01/29 15:50:56;;;;;;;1.07;1.07;;;3.20;99.90;;;;;;6213333;23;20170;-74
2021/01/29 15:53:49;;;;;;;1.03;1.03;;;3.40;99.90;;;;;;6213662;23;20245;-73
2021/01/29 15:56:46;;;;;;;1.20;1.20;;;3.40;99.90;;;;;;6213777;23;20178;-72
2021/01/29 15:59:18;;;;;;;1.20;1.20;;;3.50;99.90;;;;;;6213000;23;20567;-73
2021/01/29 16:01:49;;;;;;;1.30;1.30;;;3.50;99.90;;;;;;6212861;23;20205;-72
2021/01/29 16:04:38;;;;;;;1.10;1.10;;;3.60;99.90;;;;;;6212388;23;20189;-72
2021/01/29 16:07:21;;;;;;;1.10;1.10;;;3.70;99.90;;;;;;6213195;23;20194;-74
2021/01/29 16:10:00;;;;;;;1.10;1.10;;;3.70;99.90;;;;;;6213659;23;20468;-75
2021/01/29 16:12:37;;;;;;;1.10;1.10;;;3.80;99.90;;;;;;6213186;23;20198;-75
2021/01/29 16:15:16;;;;;;;1.20;1.20;;;3.80;99.90;;;;;;6213517;23;20170;-74
2021/01/29 16:17:48;;;;;;;1.10;1.10;;;3.90;99.90;;;;;;6213391;23;20162;-74
2021/01/29 16:20:19;;;;;;;1.20;1.20;;;3.90;99.90;;;;;;6213434;23;20248;-73
2021/01/29 16:22:46;;;;;;;1.10;1.10;;;3.90;99.90;;;;;;6213745;23;20202;-74
2021/01/29 16:25:16;;;;;;;1.30;1.30;;;3.90;99.90;;;;;;6213267;23;20648;-74
2021/01/29 16:27:44;;;;;;;1.17;1.17;;;3.90;99.90;;;;;;6214685;23;20634;-75
2021/01/29 16:30:16;;;;;;;1.37;1.37;;;3.70;99.90;;;;;;6215656;23;20182;-74
2021/01/29 16:32:43;;;;;;;1.10;1.10;;;3.80;99.90;;;;;;6215448;23;20194;-74
2021/01/29 16:35:19;;;;;;;1.20;1.20;;;3.80;99.90;;;;;;6215328;23;20498;-76
2021/01/29 16:37:46;;;;;;;1.10;1.10;;;3.80;99.90;;;;;;6215093;23;20162;-74
2021/01/29 16:40:18;;;;;;;1.00;1.00;;;3.90;99.90;;;;;;6215701;23;20232;-73
2021/01/29 16:42:46;;;;;;;1.20;1.20;;;3.80;99.90;;;;;;6215452;23;20169;-75
2021/01/29 16:45:33;;;;;;;1.00;1.00;;;3.90;99.90;;;;;;6215690;23;20235;-75
2021/01/29 16:48:01;;;;;;;1.10;1.10;;;3.80;99.90;;;;;;6214852;23;20474;-74
2021/01/29 16:50:30;;;;;;;1.20;1.20;;;3.90;99.90;;;;;;6214726;23;20248;-74
2021/01/29 16:53:01;;;;;;;1.30;1.30;;;3.80;99.90;;;;;;6214942;23;20240;-74
2021/01/29 16:55:32;;;;;;;1.20;1.20;;;3.60;99.90;;;;;;6214940;23;20163;-75
2021/01/29 16:58:03;;;;;;;1.10;1.10;;;3.60;99.90;;;;;;6214313;23;20218;-75
2021/01/29 17:00:33;;;;;;;1.10;1.10;;;3.70;99.90;;;;;;6215246;23;20244;-75
2021/01/29 17:03:00;;;;;;;1.10;1.10;;;3.70;99.90;;;;;;6215180;23;20197;-74
2021/01/29 17:05:30;;;;;;;1.10;1.10;;;3.90;99.90;;;;;;6215667;23;20188;-76
2021/01/29 17:07:59;;;;;;;1.10;1.10;;;3.80;99.90;;;;;;6214982;23;20165;-74
2021/01/29 17:10:32;;;;;;;1.10;1.10;;;4.00;99.90;;;;;;6214954;23;20210;-75
2021/01/29 17:13:03;;;;;;;1.10;1.10;;;4.00;99.90;;;;;;6215336;23;20182;-75
2021/01/29 17:15:34;;;;;;;1.10;1.10;;;4.00;99.90;;;;;;6215730;23;20229;-75
2021/01/29 17:18:03;;;;;;;1.10;1.10;;;4.00;99.90;;;;;;6215096;23;20162;-74
2021/01/29 17:20:33;;;;;;;1.20;1.20;;;4.10;99.90;;;;;;6214880;23;20225;-75
2021/01/29 17:23:10;;;;;;;1.17;1.17;;;4.10;99.90;;;;;;6215191;23;20182;-77
2021/01/29 17:25:41;;;;;;;1.10;1.10;;;4.10;99.90;;;;;;6211849;23;20216;-74
2021/01/29 17:28:15;;;;;;;1.10;1.10;;;4.10;99.90;;;;;;6212364;23;20158;-76
2021/01/29 17:30:44;;;;;;;1.10;1.10;;;4.10;99.90;;;;;;6214194;23;20201;-76
2021/01/29 17:33:20;;;;;;;1.33;1.33;;;4.00;99.90;;;;;;6214025;23;20250;-76
2021/01/29 17:35:50;;;;;;;1.20;1.20;;;4.00;99.90;;;;;;6215771;23;20209;-76
2021/01/29 17:38:23;;;;;;;1.20;1.20;;;4.00;99.90;;;;;;6214420;23;20194;-74
2021/01/29 17:40:52;;;;;;;1.23;1.23;;;4.10;99.90;;;;;;6214990;23;20198;-73
2021/01/29 17:43:24;;;;;;;1.10;1.10;;;4.00;99.90;;;;;;6214295;23;20543;-75
2021/01/29 17:45:52;;;;;;;1.10;1.10;;;4.00;99.90;;;;;;6215412;23;20599;-75
2021/01/29 17:48:29;;;;;;;1.10;1.10;;;4.10;99.90;;;;;;6214508;23;20544;-77
2021/01/29 17:50:58;;;;;;;1.13;1.13;;;4.20;99.90;;;;;;6214869;23;20244;-76
2021/01/29 17:53:41;;;;;;;1.00;1.00;;;4.20;99.90;;;;;;6214573;23;20507;-76
2021/01/29 17:56:13;;;;;;;1.17;1.17;;;4.20;99.90;;;;;;6214722;23;20158;-76
2021/01/29 17:58:40;;;;;;;1.20;1.20;;;4.30;99.90;;;;;;6214575;23;20162;-75
2021/01/29 18:01:12;;;;;;;1.27;1.27;;;4.30;99.90;;;;;;6214672;23;20584;-74
2021/01/29 18:04:01;;;;;;;1.10;1.10;;;4.20;99.90;;;;;;6214892;23;20154;-74
2021/01/29 18:06:43;;;;;;;1.30;1.30;;;4.20;99.90;;;;;;6206903;23;20559;-76
2021/01/29 18:09:23;;;;;;;1.20;1.20;;;4.20;99.90;;;;;;6215012;23;20162;-75
2021/01/29 18:12:00;;;;;;;0.90;0.90;;;4.10;99.90;;;;;;6215064;23;20251;-75
2021/01/29 18:14:31;;;;;;;1.27;1.27;;;4.20;99.90;;;;;;6215001;23;20166;-75
2021/01/29 18:17:02;;;;;;;1.10;1.10;;;4.20;99.90;;;;;;6214458;23;20169;-75
2021/01/29 18:19:29;;;;;;;1.10;1.10;;;4.20;99.90;;;;;;6214131;23;20217;-74
2021/01/29 18:22:01;;;;;;;1.10;1.10;;;4.20;99.90;;;;;;6215155;23;20248;-74
2021/01/29 18:24:28;;;;;;;1.20;1.20;;;4.10;99.90;;;;;;6214811;23;20158;-74
2021/01/29 18:26:56;;;;;;;1.20;1.20;;;;;;;;;;6215489;23;20174;-75
2021/01/29 18:29:23;;;;;;;1.13;1.13;;;4.20;99.90;;;;;;6214299;23;20178;-75
2021/01/29 18:31:50;;;;;;;1.10;1.10;;;4.10;99.90;;;;;;6214460;23;20202;-75
2021/01/29 18:34:23;;;;;;;1.10;1.10;;;4.10;99.90;;;;;;6214236;23;20228;-75
2021/01/29 18:36:50;;;;;;;1.30;1.30;;;4.20;99.90;;;;;;6214162;23;20197;-74
2021/01/29 18:39:18;;;;;;;1.20;1.20;;;4.30;99.90;;;;;;6214210;23;20178;-74
2021/01/29 18:41:45;;;;;;;1.10;1.10;;;4.40;99.90;;;;;;6214544;23;20198;-74
2021/01/29 18:44:14;;;;;;;1.20;1.20;;;4.40;99.90;;;;;;6214112;23;20179;-74
2021/01/29 18:46:42;;;;;;;1.10;1.10;;;4.40;99.90;;;;;;6214543;23;20178;-74
2021/01/29 18:49:10;;;;;;;1.10;1.10;;;4.40;99.90;;;;;;6214231;23;20197;-74
2021/01/29 18:51:39;;;;;;;1.10;1.10;;;4.40;99.90;;;;;;6214593;23;20197;-74
2021/01/29 18:54:06;;;;;;;1.10;1.10;;;4.40;99.90;;;;;;6214508;23;20222;-74
2021/01/29 18:56:33;;;;;;;1.20;1.20;;;4.40;99.90;;;;;;6214308;23;20186;-74
2021/01/29 18:59:00;;;;;;;1.20;1.20;;;4.30;99.90;;;;;;6214219;23;20236;-74
2021/01/29 19:01:30;;;;;;;1.10;1.10;;;4.30;99.90;;;;;;6213755;23;20587;-74
2021/01/29 19:03:59;;;;;;;1.23;1.23;;;4.20;99.90;;;;;;6213953;23;20272;-73
2021/01/29 19:06:28;;;;;;;1.10;1.10;;;4.10;99.90;;;;;;6214346;23;20185;-74
2021/01/29 19:08:57;;;;;;;1.13;1.13;;;4.20;99.90;;;;;;6213779;23;20182;-74
2021/01/29 19:11:25;;;;;;;1.20;1.20;;;4.10;99.90;;;;;;6213881;23;20742;-74
2021/01/29 19:13:52;;;;;;;1.20;1.20;;;4.00;99.90;;;;;;6214312;23;20194;-74
2021/01/29 19:16:23;;;;;;;1.10;1.10;;;4.10;99.90;;;;;;6214330;23;20229;-74
2021/01/29 19:18:51;;;;;;;1.00;1.00;;;4.10;99.90;;;;;;6213100;23;20601;-74
2021/01/29 19:21:19;;;;;;;1.23;1.23;;;4.00;99.90;;;;;;6213889;23;20252;-76
2021/01/29 19:23:46;;;;;;;1.07;1.07;;;4.20;99.90;;;;;;6213687;23;20162;-75
2021/01/29 19:26:14;;;;;;;1.10;1.10;;;4.20;99.90;;;;;;6213324;23;20182;-75
2021/01/29 19:28:42;;;;;;;1.30;1.30;;;;;;;;;;6213125;23;20178;-75
2021/01/29 19:31:09;;;;;;;1.20;1.20;;;4.20;99.90;;;;;;6213913;23;20591;-75
2021/01/29 19:33:36;;;;;;;1.10;1.10;;;4.20;99.90;;;;;;6213574;23;20190;-75
2021/01/29 19:36:05;;;;;;;1.10;1.10;;;4.10;99.90;;;;;;6213630;23;20182;-75
2021/01/29 19:38:32;;;;;;;1.10;1.10;;;4.10;99.90;;;;;;6213256;23;20209;-75
2021/01/29 19:40:59;;;;;;;1.10;1.10;;;4.20;99.90;;;;;;6213498;23;20578;-76
2021/01/29 19:43:33;;;;;;;1.10;1.10;;;4.20;99.90;;;;;;6213738;23;20209;-76
2021/01/29 19:46:01;;;;;;;1.10;1.10;;;4.20;99.90;;;;;;6213876;23;20208;-75
2021/01/29 19:48:28;;;;;;;1.30;1.30;;;4.30;99.90;;;;;;6213098;23;20182;-75
2021/01/29 19:50:55;;;;;;;1.10;1.10;;;4.20;99.90;;;;;;6213761;23;20281;-76
2021/01/29 19:53:22;;;;;;;1.10;1.10;;;4.30;99.90;;;;;;6213571;23;20198;-75
2021/01/29 19:55:49;;;;;;;1.13;1.13;;;4.30;99.90;;;;;;6213802;23;20236;-75
2021/01/29 19:58:18;;;;;;;1.10;1.10;;;4.30;99.90;;;;;;6213551;23;20224;-76
2021/01/29 20:00:47;;;;;;;1.20;1.20;;;4.20;99.90;;;;;;6213327;23;20202;-75
2021/01/29 20:03:16;;;;;;;1.10;1.10;;;4.10;99.90;;;;;;6215848;23;20174;-75
2021/01/29 20:05:43;;;;;;;1.17;1.17;;;4.20;99.90;;;;;;6215963;23;20200;-75
2021/01/29 20:08:10;;;;;;;1.03;1.03;;;4.20;99.90;;;;;;6215671;23;20174;-75
2021/01/29 20:10:38;;;;;;;1.20;1.20;;;4.20;99.90;;;;;;6215616;23;20567;-76
2021/01/29 20:13:06;;;;;;;1.00;1.00;;;4.20;99.90;;;;;;6215983;23;20276;-75
2021/01/29 20:15:38;;;;;;;1.20;1.20;;;4.20;99.90;;;;;;6215418;23;20601;-76
2021/01/29 20:18:07;;;;;;;1.10;1.10;;;4.20;99.90;;;;;;6215527;23;20541;-76
2021/01/29 20:20:34;;;;;;;1.27;1.27;;;4.20;99.90;;;;;;6215619;23;20252;-75
2021/01/29 20:23:01;;;;;;;1.10;1.10;;;3.90;99.90;;;;;;6215887;23;20170;-75
2021/01/29 20:25:28;;;;;;;1.20;1.20;;;4.00;99.90;;;;;;6215758;23;20228;-75
2021/01/29 20:27:55;;;;;;;1.00;1.00;;;4.00;99.90;;;;;;6215510;23;20166;-76
2021/01/29 20:30:24;;;;;;;1.17;1.17;;;3.90;99.90;;;;;;6215511;23;20181;-75
2021/01/29 20:32:52;;;;;;;1.27;1.27;;;3.90;99.90;;;;;;6215346;23;20699;-75
2021/01/29 20:35:21;;;;;;;1.30;1.30;;;4.00;99.90;;;;;;6215615;23;20518;-76
2021/01/29 20:37:49;;;;;;;1.30;1.30;;;4.00;99.90;;;;;;6215498;23;20228;-75
2021/01/29 20:40:18;;;;;;;1.00;1.00;;;4.00;99.90;;;;;;6214971;23;20563;-76
2021/01/29 20:42:45;;;;;;;1.10;1.10;;;3.80;99.90;;;;;;6215327;23;20240;-76
2021/01/29 20:45:13;;;;;;;1.23;1.23;;;3.90;99.90;;;;;;6215132;23;20178;-75
2021/01/29 20:47:42;;;;;;;1.00;1.00;;;3.90;99.90;;;;;;6215339;23;20178;-75
2021/01/29 20:50:18;;;;;;;1.00;1.00;;;3.90;99.90;;;;;;6215513;23;20181;-75
2021/01/29 20:52:46;;;;;;;1.10;1.10;;;3.90;99.90;;;;;;6215635;23;20228;-75
2021/01/29 20:55:13;;;;;;;1.20;1.20;;;3.70;99.90;;;;;;6215113;23;20182;-76
2021/01/29 20:57:40;;;;;;;1.10;1.10;;;3.60;99.90;;;;;;6214972;23;20232;-76
2021/01/29 21:00:10;;;;;;;1.20;1.20;;;3.60;99.90;;;;;;6214530;23;20540;-75
2021/01/29 21:02:37;;;;;;;1.20;1.20;;;3.50;99.90;;;;;;6215357;23;20182;-75
2021/01/29 21:05:06;;;;;;;1.10;1.10;;;3.40;99.90;;;;;;6215941;23;20182;-74
2021/01/29 21:07:33;;;;;;;1.13;1.13;;;3.50;99.90;;;;;;6215397;23;20185;-75
2021/01/29 21:10:03;;;;;;;1.20;1.20;;;3.50;99.90;;;;;;6214502;23;20558;-74
2021/01/29 21:12:30;;;;;;;1.10;1.10;;;3.50;99.90;;;;;;6213958;23;20707;-75
2021/01/29 21:14:57;;;;;;;1.20;1.20;;;3.50;99.90;;;;;;6214542;23;20178;-75
2021/01/29 21:17:24;;;;;;;1.20;1.20;;;4.50;99.90;;;;;;6214656;23;20209;-74
2021/01/29 21:19:51;;;;;;;1.00;1.00;;;3.50;99.90;;;;;;6214260;23;20257;-75
2021/01/29 21:22:18;;;;;;;1.10;1.10;;;3.40;99.90;;;;;;6214493;23;20248;-74
2021/01/29 21:24:45;;;;;;;1.10;1.10;;;3.50;99.90;;;;;;6215346;23;20185;-74
2021/01/29 21:27:12;;;;;;;1.00;1.00;;;3.50;99.90;;;;;;6215501;23;20178;-75
2021/01/29 21:29:39;;;;;;;1.10;1.10;;;3.60;99.90;;;;;;6215285;23;20177;-74
2021/01/29 21:32:06;;;;;;;1.20;1.20;;;3.80;99.90;;;;;;6215220;23;20280;-75
2021/01/29 21:34:34;;;;;;;1.27;1.27;;;3.60;99.90;;;;;;6213063;23;20757;-74
2021/01/29 21:37:03;;;;;;;1.20;1.20;;;3.50;99.90;;;;;;6212862;23;20204;-75
2021/01/29 21:39:31;;;;;;;1.20;1.20;;;3.50;99.90;;;;;;6212303;23;20649;-75
2021/01/29 21:41:59;;;;;;;1.10;1.10;;;3.70;99.90;;;;;;6212314;23;20198;-75
2021/01/29 21:44:28;;;;;;;1.00;1.00;;;3.70;99.90;;;;;;6212602;23;20555;-74
2021/01/29 21:46:59;;;;;;;1.03;1.03;;;4.40;99.90;;;;;;6212346;23;20676;-74
2021/01/29 21:49:27;;;;;;;1.23;1.23;;;4.40;99.90;;;;;;6212579;23;20174;-74
2021/01/29 21:51:54;;;;;;;1.10;1.10;;;4.80;99.90;;;;;;6215119;23;20198;-75
2021/01/29 21:54:21;;;;;;;1.20;1.20;;;5.10;99.90;;;;;;6214689;23;20244;-75
2021/01/29 21:56:49;;;;;;;1.10;1.10;;;5.30;99.90;;;;;;6214939;23;20182;-74
2021/01/29 21:59:17;;;;;;;1.07;1.07;;;5.40;99.90;;;;;;6214483;23;20637;-75
